Time;durP1;ratioP1;P1;durP2;ratioP2;P2;SDS_P1;SDS_P2;PMS_P1;PMS_P2;Temp;Humidity;BMP_temperature;BMP_pressure;BME280_temperature;BME280_humidity;BME280_pressure;Samples;Min_cycle;Max_cycle;Signal;HPM_P1;HPM_P2
2022/08/01 00:01:21;;;;;;;7.00;4.70;;;;;;;18.62;46.05;99694.06;5106045;27;20058;-70
2022/08/01 00:03:45;;;;;;;6.90;4.18;;;;;;;18.62;46.24;99692.22;5109028;27;20042;-70
2022/08/01 00:06:10;;;;;;;6.78;4.25;;;;;;;18.67;45.71;99689.03;5112680;27;20063;-68
2022/08/01 00:08:35;;;;;;;8.23;4.85;;;;;;;18.64;45.67;99689.34;5110167;27;20038;-70
2022/08/01 00:11:00;;;;;;;8.45;4.57;;;;;;;18.62;46.64;99691.38;5109430;27;20094;-71
2022/08/01 00:13:24;;;;;;;7.82;4.15;;;;;;;18.59;45.97;99686.28;5105507;27;20096;-71
2022/08/01 00:15:49;;;;;;;5.53;3.75;;;;;;;18.54;46.01;99686.72;5086419;27;20131;-69
2022/08/01 00:18:14;;;;;;;9.50;4.85;;;;;;;18.50;46.91;99682.66;5105769;27;20054;-67
2022/08/01 00:20:39;;;;;;;5.25;4.18;;;;;;;18.48;46.73;99677.41;5084889;27;20085;-67
2022/08/01 00:23:04;;;;;;;11.18;4.47;;;;;;;18.46;46.63;99670.47;5104400;27;20138;-68
2022/08/01 00:25:29;;;;;;;7.30;4.53;;;;;;;18.45;46.42;99668.78;5101484;27;20098;-67
2022/08/01 00:27:54;;;;;;;8.13;4.55;;;;;;;18.42;47.38;99674.50;5105937;27;20038;-67
2022/08/01 00:30:19;;;;;;;8.85;4.53;;;;;;;18.39;47.38;99674.81;5087270;27;20117;-68
2022/08/01 00:32:44;;;;;;;6.13;3.70;;;;;;;18.35;47.16;99677.00;5103978;27;20557;-68
2022/08/01 00:35:09;;;;;;;6.40;4.28;;;;;;;18.35;46.60;99676.13;5106776;27;20070;-68
2022/08/01 00:37:34;;;;;;;6.93;4.00;;;;;;;18.34;47.30;99683.38;5103555;27;20134;-68
2022/08/01 00:39:58;;;;;;;6.65;4.20;;;;;;;18.33;46.50;99683.53;5070531;27;20117;-68
2022/08/01 00:42:23;;;;;;;11.23;4.82;;;;;;;18.28;47.37;99684.03;5101566;27;20587;-67
2022/08/01 00:44:48;;;;;;;10.32;4.03;;;;;;;18.32;46.79;99684.53;5085574;27;20486;-70
2022/08/01 00:47:13;;;;;;;6.43;3.75;;;;;;;18.27;48.55;99685.03;5106019;27;20061;-67
2022/08/01 00:49:37;;;;;;;13.88;4.50;;;;;;;18.28;46.75;99683.19;5103014;27;20039;-68
2022/08/01 00:52:04;;;;;;;8.70;3.92;;;;;;;18.27;47.10;99685.03;5084355;27;20513;-69
2022/08/01 00:54:29;;;;;;;6.07;3.92;;;;;;;18.28;47.38;99683.19;5091409;27;20047;-68
2022/08/01 00:56:54;;;;;;;6.30;4.10;;;;;;;18.27;47.56;99686.88;5122080;27;20043;-67
2022/08/01 00:59:21;;;;;;;6.80;4.60;;;;;;;18.27;47.92;99689.59;5120871;27;20449;-72
2022/08/01 01:01:46;;;;;;;7.15;3.90;;;;;;;18.19;47.42;99674.16;5117904;27;20792;-65
2022/08/01 01:04:10;;;;;;;8.38;4.20;;;;;;;18.18;47.64;99674.31;5121297;27;20473;-65
2022/08/01 01:07:00;;;;;;;8.02;4.18;;;;;;;18.23;47.26;99690.88;5120903;27;20080;-68
2022/08/01 01:09:52;;;;;;;8.02;4.07;;;;;;;18.21;47.50;99687.50;5123549;27;20038;-66
2022/08/01 01:12:25;;;;;;;7.20;4.03;;;;;;;18.20;47.85;99680.41;5120207;27;20176;-66
2022/08/01 01:15:08;;;;;;;9.48;4.85;;;;;;;18.15;47.92;99675.50;5120160;27;20807;-66
2022/08/01 01:17:41;;;;;;;7.78;4.32;;;;;;;18.11;48.92;99676.81;5119942;27;20043;-69
2022/08/01 01:20:09;;;;;;;8.70;4.43;;;;;;;18.07;48.12;99673.56;5120429;27;20034;-65
2022/08/01 01:22:52;;;;;;;11.25;4.30;;;;;;;18.12;48.31;99671.25;5120273;27;20118;-68
2022/08/01 01:26:02;;;;;;;7.93;4.43;;;;;;;18.13;48.09;99669.41;5120485;27;20046;-66
2022/08/01 01:28:35;;;;;;;13.30;4.93;;;;;;;18.08;48.31;99674.41;5121687;27;20034;-63
2022/08/01 01:31:02;;;;;;;10.52;4.38;;;;;;;18.03;48.99;99679.44;5122095;27;20417;-67
2022/08/01 01:33:31;;;;;;;9.20;5.32;;;;;;;17.99;48.85;99678.06;5101917;27;20070;-67
2022/08/01 01:36:03;;;;;;;12.32;4.85;;;;;;;18.01;48.81;99673.34;5119711;27;20051;-62
2022/08/01 01:38:32;;;;;;;11.35;4.65;;;;;;;18.01;49.12;99676.06;5119413;27;20046;-62
2022/08/01 01:40:57;;;;;;;11.25;5.25;;;;;;;17.97;49.14;99670.09;5119126;27;20045;-63
2022/08/01 01:43:24;;;;;;;10.80;5.03;;;;;;;17.95;49.17;99677.50;5100581;27;20039;-62
2022/08/01 01:45:50;;;;;;;7.43;4.90;;;;;;;17.91;49.34;99669.91;5119487;27;20477;-63
2022/08/01 01:48:18;;;;;;;12.38;5.63;;;;;;;17.91;49.40;99678.00;5102940;27;20099;-62
2022/08/01 01:50:46;;;;;;;9.98;4.60;;;;;;;17.91;49.55;99675.28;5119497;27;20049;-62
2022/08/01 01:53:13;;;;;;;7.70;5.40;;;;;;;17.87;49.77;99673.91;5100471;27;20083;-61
2022/08/01 01:55:40;;;;;;;9.85;4.50;;;;;;;17.86;50.06;99673.03;5119636;27;20126;-63
2022/08/01 01:58:07;;;;;;;8.77;5.07;;;;;;;17.86;49.44;99677.59;5119296;27;20034;-63
2022/08/01 02:00:33;;;;;;;8.63;4.60;;;;;;;17.85;49.43;99675.91;5118846;27;20114;-62
2022/08/01 02:02:59;;;;;;;10.35;4.38;;;;;;;17.84;49.15;99674.19;5118837;27;20141;-62
2022/08/01 02:05:26;;;;;;;11.80;5.38;;;;;;;17.85;49.46;99670.50;5122198;27;20039;-62
2022/08/01 02:07:52;;;;;;;10.05;4.50;;;;;;;17.87;49.88;99669.34;5100462;27;20062;-63
2022/08/01 02:10:18;;;;;;;8.65;4.47;;;;;;;17.90;49.42;99669.06;5118630;27;20473;-64
2022/08/01 02:12:45;;;;;;;16.00;5.07;;;;;;;17.95;48.94;99668.56;5100276;27;20049;-62
2022/08/01 02:15:12;;;;;;;10.07;5.00;;;;;;;17.97;49.83;99680.06;5118205;27;20111;-63
2022/08/01 02:17:43;;;;;;;11.07;4.63;;;;;;;18.02;49.36;99683.16;5118629;27;20087;-63
2022/08/01 02:20:09;;;;;;;10.80;5.40;;;;;;;18.06;48.82;99671.00;5099767;27;20043;-61
2022/08/01 02:22:46;;;;;;;13.23;5.50;;;;;;;18.12;48.29;99675.81;5118558;27;20043;-63
2022/08/01 02:25:24;;;;;;;15.70;5.53;;;;;;;18.16;48.29;99670.94;5119007;27;20417;-65
2022/08/01 02:28:08;;;;;;;7.00;4.18;;;;;;;18.16;48.91;99668.25;5082840;27;20441;-65
2022/08/01 02:30:36;;;;;;;8.20;5.57;;;;;;;18.25;48.63;99673.53;5118541;27;20050;-65
2022/08/01 02:33:11;;;;;;;7.13;4.75;;;;;;;18.32;48.70;99668.34;5083805;27;20117;-70
2022/08/01 02:35:40;;;;;;;11.65;4.60;;;;;;;18.37;48.38;99669.59;5099890;27;20058;-69
2022/08/01 02:38:10;;;;;;;11.05;4.65;;;;;;;18.44;47.90;99673.31;5117821;27;20087;-69
2022/08/01 02:40:40;;;;;;;9.48;5.28;;;;;;;18.50;47.88;99672.72;5102774;27;20046;-70
2022/08/01 02:43:06;;;;;;;10.27;5.05;;;;;;;18.50;47.65;99680.81;5127407;27;20083;-68
2022/08/01 02:45:33;;;;;;;14.38;5.30;;;;;;;18.60;47.70;99679.88;5114116;27;20085;-67
2022/08/01 02:48:05;;;;;;;13.50;4.60;;;;;;;18.62;47.89;99683.28;5108974;27;20046;-68
2022/08/01 02:50:33;;;;;;;8.32;4.90;;;;;;;18.69;47.30;99670.81;5128527;27;20523;-68
2022/08/01 02:52:59;;;;;;;15.07;6.45;;;;;;;18.75;47.47;99683.66;5134221;27;20042;-66
2022/08/01 02:55:25;;;;;;;14.93;4.80;;;;;;;18.80;47.46;99674.06;5129888;27;20095;-67
2022/08/01 02:57:53;;;;;;;8.70;4.90;;;;;;;18.95;47.20;99676.19;5122262;27;20049;-64
2022/08/01 03:00:19;;;;;;;11.77;6.55;;;;;;;18.98;46.88;99675.81;5101319;27;20038;-72
2022/08/01 03:02:45;;;;;;;11.82;6.00;;;;;;;19.03;47.07;99678.91;5119406;27;20042;-68
2022/08/01 03:05:12;;;;;;;10.00;4.85;;;;;;;19.11;47.22;99678.94;5082730;27;20054;-69
2022/08/01 03:07:39;;;;;;;7.22;4.53;;;;;;;19.14;47.31;99679.47;5118066;27;20121;-67
2022/08/01 03:10:04;;;;;;;8.60;5.40;;;;;;;19.24;46.16;99676.63;5117942;27;20038;-67
2022/08/01 03:12:33;;;;;;;16.13;5.30;;;;;;;19.29;46.89;99676.13;5111166;27;20054;-68
2022/08/01 03:15:00;;;;;;;7.93;5.20;;;;;;;19.34;47.65;99680.03;5086524;27;20175;-68
2022/08/01 03:17:27;;;;;;;9.50;5.57;;;;;;;19.44;46.79;99678.03;5084538;27;20043;-67
2022/08/01 03:19:53;;;;;;;9.20;4.85;;;;;;;19.56;46.84;99681.28;5085471;27;20141;-68
2022/08/01 03:22:20;;;;;;;7.18;4.88;;;;;;;19.67;46.25;99680.97;5085426;27;20063;-68
2022/08/01 03:24:49;;;;;;;11.88;5.88;;;;;;;19.78;46.00;99680.66;5087272;27;20067;-67
2022/08/01 03:27:14;;;;;;;8.13;5.15;;;;;;;19.90;45.96;99683.88;5084689;27;20139;-68
2022/08/01 03:29:41;;;;;;;9.15;5.10;;;;;;;20.02;46.12;99673.56;5080211;27;20078;-67
2022/08/01 03:32:06;;;;;;;9.82;5.38;;;;;;;20.14;45.57;99675.75;5076996;28;20579;-67
2022/08/01 03:34:31;;;;;;;8.80;5.53;;;;;;;20.27;45.18;99669.84;5075370;28;20047;-66
2022/08/01 03:37:32;;;;;;;7.75;5.53;;;;;;;20.53;45.14;99677.78;5075337;28;20105;-67
2022/08/01 03:40:13;;;;;;;12.30;5.18;;;;;;;20.64;44.65;99669.28;5076994;28;20051;-67
2022/08/01 03:42:44;;;;;;;11.95;5.63;;;;;;;20.75;44.97;99673.50;5076435;28;20043;-66
2022/08/01 03:45:14;;;;;;;11.23;5.18;;;;;;;20.86;43.64;99675.81;5074555;28;20035;-66
2022/08/01 03:47:43;;;;;;;7.82;5.05;;;;;;;20.89;43.70;99670.88;5077842;28;20077;-66
2022/08/01 03:50:10;;;;;;;7.22;5.38;;;;;;;20.95;43.61;99663.94;5076287;28;20039;-67
2022/08/01 03:52:38;;;;;;;10.57;5.28;;;;;;;21.02;43.28;99670.34;5082954;28;20074;-69
2022/08/01 03:55:06;;;;;;;9.75;5.88;;;;;;;21.09;43.15;99665.06;5079792;28;20043;-67
2022/08/01 03:57:32;;;;;;;12.10;5.82;;;;;;;21.17;43.30;99667.72;5077633;28;20087;-68
2022/08/01 03:59:58;;;;;;;12.30;5.25;;;;;;;21.26;42.76;99664.84;5075065;28;20039;-68
2022/08/01 04:02:23;;;;;;;14.55;5.30;;;;;;;21.29;42.40;99666.34;5074415;28;20049;-69
2022/08/01 04:04:48;;;;;;;8.70;5.00;;;;;;;21.38;42.90;99676.13;5075926;28;20443;-69
2022/08/01 04:07:24;;;;;;;8.52;5.38;;;;;;;21.57;42.00;99669.38;5077466;28;20031;-69
2022/08/01 04:09:49;;;;;;;8.77;5.63;;;;;;;21.66;42.14;99665.63;5075163;28;20036;-69
2022/08/01 04:12:13;;;;;;;10.80;4.93;;;;;;;21.77;42.12;99661.66;5075392;28;20043;-68
2022/08/01 04:14:38;;;;;;;12.20;5.28;;;;;;;21.85;41.47;99659.72;5083891;27;20059;-70
2022/08/01 04:17:03;;;;;;;6.40;4.88;;;;;;;21.96;40.68;99658.44;5077855;27;20091;-68
2022/08/01 04:19:28;;;;;;;11.73;4.97;;;;;;;22.06;40.61;99659.91;5096168;27;20070;-67
2022/08/01 04:21:52;;;;;;;6.57;4.20;;;;;;;22.20;40.36;99662.84;5095912;27;20454;-68
2022/08/01 04:24:20;;;;;;;8.07;4.22;;;;;;;22.34;40.23;99660.16;5060418;27;20122;-67
2022/08/01 04:26:47;;;;;;;11.68;4.95;;;;;;;22.51;39.55;99668.97;5095433;27;20050;-67
2022/08/01 04:29:16;;;;;;;7.57;4.38;;;;;;;22.68;38.83;99669.66;5095662;27;20069;-68
2022/08/01 04:31:45;;;;;;;6.13;4.25;;;;;;;22.84;38.97;99668.66;5094788;27;20171;-67
2022/08/01 04:34:14;;;;;;;6.70;4.15;;;;;;;22.99;38.98;99673.06;5098340;27;20398;-66
2022/08/01 04:36:44;;;;;;;6.88;4.78;;;;;;;23.16;37.96;99681.84;5097012;27;20401;-67
2022/08/01 04:39:10;;;;;;;10.32;4.78;;;;;;;23.30;38.01;99672.00;5096944;27;20043;-67
2022/08/01 04:41:37;;;;;;;6.93;4.05;;;;;;;23.57;38.10;99668.59;5061260;27;20130;-66
2022/08/01 04:44:02;;;;;;;6.68;4.60;;;;;;;23.88;37.07;99671.00;5095588;27;20398;-66
2022/08/01 04:46:29;;;;;;;7.93;4.25;;;;;;;24.14;36.26;99673.97;5095265;27;20095;-66
2022/08/01 04:48:54;;;;;;;8.60;4.60;;;;;;;24.41;35.70;99680.50;5076957;28;20043;-66
2022/08/01 04:51:21;;;;;;;7.32;4.28;;;;;;;24.65;35.14;99670.19;5095368;27;20039;-68
2022/08/01 04:53:46;;;;;;;9.15;4.85;;;;;;;24.67;34.91;99676.28;5095284;28;20043;-69
2022/08/01 04:56:12;;;;;;;8.75;5.20;;;;;;;24.71;35.09;99675.69;5095526;27;20405;-69
2022/08/01 04:58:37;;;;;;;8.52;5.13;;;;;;;24.95;34.95;99672.50;5095364;28;20046;-68
2022/08/01 05:01:02;;;;;;;9.95;4.63;;;;;;;24.89;34.12;99681.47;5077188;28;20125;-70
2022/08/01 05:03:27;;;;;;;13.10;4.35;;;;;;;24.91;34.70;99676.66;5076856;28;20042;-68
2022/08/01 05:05:51;;;;;;;5.53;3.60;;;;;;;24.86;33.78;99675.56;5095462;28;20458;-67
2022/08/01 05:08:16;;;;;;;9.02;3.97;;;;;;;24.82;34.49;99672.41;5076827;28;20531;-67
2022/08/01 05:10:41;;;;;;;6.10;4.05;;;;;;;25.01;34.43;99680.94;5094945;28;20039;-66
2022/08/01 05:13:06;;;;;;;10.65;5.00;;;;;;;25.23;34.49;99677.06;5095449;27;20050;-68
2022/08/01 05:15:30;;;;;;;7.93;4.55;;;;;;;25.64;34.48;99680.59;5076476;28;20063;-67
2022/08/01 05:17:56;;;;;;;6.45;4.43;;;;;;;25.87;33.16;99682.94;5095354;28;20057;-67
2022/08/01 05:20:21;;;;;;;4.25;3.50;;;;;;;26.04;32.62;99683.41;5076686;28;20039;-68
2022/08/01 05:22:46;;;;;;;6.75;4.30;;;;;;;25.85;32.58;99673.28;5095632;27;20093;-68
2022/08/01 05:25:11;;;;;;;5.53;4.05;;;;;;;25.78;33.21;99675.16;5076825;27;20051;-67
2022/08/01 05:27:39;;;;;;;5.93;4.13;;;;;;;25.75;32.84;99681.88;5095071;28;20050;-68
2022/08/01 05:30:05;;;;;;;8.32;4.18;;;;;;;25.70;33.12;99675.38;5095098;28;20121;-69
2022/08/01 05:32:31;;;;;;;8.55;4.18;;;;;;;25.92;33.36;99672.25;5076520;28;20075;-68
2022/08/01 05:34:56;;;;;;;6.80;4.07;;;;;;;26.22;33.16;99667.22;5095080;28;20066;-69
2022/08/01 05:37:21;;;;;;;7.93;4.00;;;;;;;26.66;32.17;99673.97;5076795;28;20067;-69
2022/08/01 05:39:45;;;;;;;8.25;4.10;;;;;;;26.94;31.58;99676.47;5059990;28;20047;-68
2022/08/01 05:42:10;;;;;;;9.48;3.95;;;;;;;27.24;31.16;99672.16;5079156;27;20055;-68
2022/08/01 05:44:35;;;;;;;5.63;4.05;;;;;;;27.22;30.52;99671.53;5081173;27;20042;-71
2022/08/01 05:47:00;;;;;;;12.25;4.03;;;;;;;27.43;30.36;99673.13;5098842;27;20042;-69
2022/08/01 05:49:25;;;;;;;5.10;3.38;;;;;;;27.61;30.07;99673.28;5099513;27;20074;-69
2022/08/01 05:51:49;;;;;;;5.97;3.35;;;;;;;28.03;29.51;99663.53;5099983;27;20046;-69
2022/08/01 05:54:14;;;;;;;3.30;3.00;;;;;;;28.20;28.72;99672.09;5080526;27;20442;-68
2022/08/01 05:56:39;;;;;;;4.63;3.25;;;;;;;28.30;28.33;99664.19;5080339;27;20039;-67
2022/08/01 05:59:04;;;;;;;5.97;3.35;;;;;;;28.27;28.40;99672.88;5080509;27;20043;-67
2022/08/01 06:01:28;;;;;;;3.58;3.28;;;;;;;28.50;28.75;99666.75;5099883;27;20074;-66
2022/08/01 06:03:54;;;;;;;5.38;3.30;;;;;;;29.19;28.22;99669.22;5099733;27;20039;-70
2022/08/01 06:06:18;;;;;;;4.28;3.42;;;;;;;30.00;26.90;99667.13;5099758;27;20047;-67
2022/08/01 06:08:43;;;;;;;6.65;3.25;;;;;;;30.78;25.69;99677.88;5081497;27;20027;-69
2022/08/01 06:11:08;;;;;;;6.03;3.70;;;;;;;30.97;24.66;99676.66;5081283;27;20047;-67
2022/08/01 06:13:33;;;;;;;10.80;3.70;;;;;;;30.86;25.19;99674.75;5081249;27;20039;-67
2022/08/01 06:15:58;;;;;;;5.93;3.97;;;;;;;31.11;24.78;99680.88;5099886;27;20086;-67
2022/08/01 06:18:23;;;;;;;6.45;3.60;;;;;;;30.98;24.92;99670.09;5081160;27;20111;-67
2022/08/01 06:20:48;;;;;;;7.72;4.10;;;;;;;31.23;24.83;99678.09;5099245;27;20081;-66
2022/08/01 06:23:15;;;;;;;7.95;4.53;;;;;;;31.39;24.28;99680.06;5098373;27;20047;-66
2022/08/01 06:25:40;;;;;;;11.48;4.30;;;;;;;31.49;24.61;99679.47;5080274;27;20564;-69
2022/08/01 06:28:05;;;;;;;8.65;4.53;;;;;;;32.24;23.95;99680.09;5098780;27;20630;-68
2022/08/01 06:30:29;;;;;;;4.82;4.03;;;;;;;33.18;23.54;99677.44;5098283;27;20464;-66
2022/08/01 06:32:58;;;;;;;8.75;4.90;;;;;;;33.57;22.70;99685.66;5098211;27;20039;-66
2022/08/01 06:35:22;;;;;;;7.90;4.63;;;;;;;33.61;21.91;99687.66;5098063;27;20168;-67
2022/08/01 06:37:48;;;;;;;5.60;4.28;;;;;;;33.29;22.39;99690.31;5079568;27;20129;-67
2022/08/01 06:40:13;;;;;;;8.85;4.13;;;;;;;33.58;22.08;99688.19;5079525;27;20043;-66
2022/08/01 06:42:38;;;;;;;11.23;5.55;;;;;;;33.59;22.13;99678.78;5098168;27;20135;-68
2022/08/01 06:45:04;;;;;;;10.40;4.88;;;;;;;34.10;21.45;99685.72;5097876;27;20065;-68
2022/08/01 06:47:30;;;;;;;6.05;4.88;;;;;;;34.06;21.31;99686.50;5097848;27;20035;-68
2022/08/01 06:49:54;;;;;;;10.02;6.00;;;;;;;34.41;20.76;99688.81;5097964;27;20054;-67
2022/08/01 06:52:19;;;;;;;14.40;5.10;;;;;;;34.71;20.48;99700.09;5097852;27;20047;-69
2022/08/01 06:54:44;;;;;;;9.05;5.30;;;;;;;34.56;21.14;99694.44;5097900;27;20035;-69
2022/08/01 06:57:09;;;;;;;8.18;5.47;;;;;;;34.58;21.31;99693.09;5099575;27;20051;-71
2022/08/01 06:59:34;;;;;;;8.02;5.57;;;;;;;34.99;21.09;99770.16;5101858;27;20088;-69
2022/08/01 07:02:00;;;;;;;9.10;5.78;;;;;;;35.60;20.40;99693.72;5104166;27;20074;-68
2022/08/01 07:04:26;;;;;;;11.95;6.32;;;;;;;35.57;20.21;99699.78;5109787;27;20054;-70
2022/08/01 07:06:51;;;;;;;11.18;5.97;;;;;;;34.83;21.00;99699.94;5100366;27;20035;-67
2022/08/01 07:09:16;;;;;;;13.15;6.85;;;;;;;34.13;21.42;99695.44;5097372;27;20073;-69
2022/08/01 07:11:40;;;;;;;9.15;6.35;;;;;;;34.08;22.03;99693.47;5097400;27;20161;-67
2022/08/01 07:14:06;;;;;;;12.05;7.07;;;;;;;33.98;21.76;99696.09;5098094;27;20559;-68
2022/08/01 07:16:30;;;;;;;10.05;5.55;;;;;;;34.36;21.51;99694.28;5081366;27;20043;-69
2022/08/01 07:18:55;;;;;;;6.60;5.13;;;;;;;34.98;21.44;99699.22;5081167;27;20050;-69
2022/08/01 07:21:20;;;;;;;9.35;5.43;;;;;;;35.53;19.48;99693.13;5099069;27;20078;-68
2022/08/01 07:23:45;;;;;;;9.68;6.53;;;;;;;36.63;19.46;99702.78;5079137;27;20046;-69
2022/08/01 07:26:09;;;;;;;9.75;5.13;;;;;;;37.66;18.55;99699.53;5099110;27;20043;-69
2022/08/01 07:28:34;;;;;;;11.15;5.78;;;;;;;38.00;17.82;99693.19;5092356;27;20092;-68
2022/08/01 07:30:59;;;;;;;9.23;5.85;;;;;;;38.17;17.60;99701.16;5111004;27;20043;-68
2022/08/01 07:33:23;;;;;;;8.38;5.55;;;;;;;37.65;17.95;99692.28;5109566;27;20054;-68
2022/08/01 07:35:48;;;;;;;9.20;5.47;;;;;;;37.12;18.36;99695.78;5093163;27;20142;-67
2022/08/01 07:38:14;;;;;;;10.02;6.43;;;;;;;37.25;18.74;99693.25;5082419;27;20404;-68
2022/08/01 07:40:39;;;;;;;8.48;5.88;;;;;;;37.95;17.94;99685.69;5096377;27;20401;-68
2022/08/01 07:43:04;;;;;;;7.65;5.25;;;;;;;38.44;17.42;99688.44;5096607;27;20349;-67
2022/08/01 07:45:30;;;;;;;9.27;5.82;;;;;;;37.35;18.87;99698.81;5061271;27;20380;-67
2022/08/01 07:47:55;;;;;;;6.10;4.88;;;;;;;36.87;19.00;99696.69;5096558;27;20047;-66
2022/08/01 07:50:19;;;;;;;7.00;5.30;;;;;;;37.12;19.34;99701.34;5096970;27;20166;-69
2022/08/01 07:52:44;;;;;;;8.60;5.07;;;;;;;38.00;18.39;99704.34;5061583;27;20417;-68
2022/08/01 07:55:10;;;;;;;10.85;4.97;;;;;;;38.51;17.26;99691.69;5096425;27;20412;-67
2022/08/01 07:57:35;;;;;;;8.60;5.30;;;;;;;38.11;17.91;99689.25;5078007;27;20039;-68
2022/08/01 08:00:01;;;;;;;6.95;4.97;;;;;;;37.64;18.68;99693.41;5096673;27;20046;-67
2022/08/01 08:02:29;;;;;;;5.90;4.88;;;;;;;38.01;18.29;99695.69;5096875;27;20043;-67
2022/08/01 08:04:53;;;;;;;5.10;4.55;;;;;;;37.79;18.08;99696.13;5096360;27;20099;-68
2022/08/01 08:07:18;;;;;;;6.57;4.85;;;;;;;37.76;18.13;99693.06;5096366;27;20062;-68
2022/08/01 08:09:43;;;;;;;5.95;4.88;;;;;;;38.19;17.05;99691.41;5097281;27;20045;-70
2022/08/01 08:12:08;;;;;;;6.50;4.80;;;;;;;39.23;15.99;99691.88;5097402;27;20043;-69
2022/08/01 08:14:33;;;;;;;5.25;4.70;;;;;;;39.82;15.38;99690.56;5097630;27;20072;-68
2022/08/01 08:16:58;;;;;;;7.65;5.00;;;;;;;40.34;15.25;99691.50;5099174;27;20091;-69
2022/08/01 08:19:23;;;;;;;8.18;5.45;;;;;;;40.86;14.42;99695.94;5100235;27;20039;-69
2022/08/01 08:21:48;;;;;;;7.82;5.45;;;;;;;40.29;14.61;99695.22;5081125;27;20046;-69
2022/08/01 08:24:23;;;;;;;5.88;5.28;;;;;;;39.27;15.61;99683.75;5097337;27;20035;-67
2022/08/01 08:26:53;;;;;;;8.02;5.70;;;;;;;39.05;15.94;99687.91;5096127;27;20043;-67
2022/08/01 08:29:18;;;;;;;7.47;6.25;;;;;;;39.12;15.92;99682.78;5095801;27;20421;-70
2022/08/01 08:31:43;;;;;;;7.22;4.80;;;;;;;38.61;15.61;99685.22;5095713;27;20042;-70
2022/08/01 08:34:08;;;;;;;6.75;5.07;;;;;;;38.04;16.11;99681.19;5097929;27;20047;-70
2022/08/01 08:36:33;;;;;;;7.25;4.85;;;;;;;37.95;16.14;99679.31;5098646;27;20043;-70
2022/08/01 08:39:01;;;;;;;10.85;5.75;;;;;;;37.09;16.46;99680.50;5097873;27;20073;-69
2022/08/01 08:41:27;;;;;;;5.22;4.72;;;;;;;36.44;17.54;99675.88;5098564;27;20074;-71
2022/08/01 08:43:53;;;;;;;7.05;5.57;;;;;;;33.89;20.28;99665.31;5098188;27;20042;-70
2022/08/01 08:46:19;;;;;;;6.03;4.88;;;;;;;34.16;20.60;99673.59;5079757;27;20119;-71
2022/08/01 08:48:44;;;;;;;5.43;4.60;;;;;;;35.47;19.80;99670.09;5080033;28;20066;-69
2022/08/01 08:51:11;;;;;;;4.93;4.50;;;;;;;37.70;17.94;99733.97;5080033;28;20088;-69
2022/08/01 08:53:36;;;;;;;7.80;5.40;;;;;;;39.97;15.19;99675.56;5080548;28;20042;-68
2022/08/01 08:56:02;;;;;;;5.22;4.82;;;;;;;41.67;13.51;99663.50;5100509;28;20039;-68
2022/08/01 08:58:27;;;;;;;5.95;5.35;;;;;;;43.14;13.16;99673.00;5085716;28;20413;-68
2022/08/01 09:00:54;;;;;;;6.60;5.93;;;;;;;43.97;11.69;99679.56;5107993;27;20107;-69
2022/08/01 09:03:18;;;;;;;8.38;6.47;;;;;;;44.29;12.02;99676.22;5110532;28;20390;-68
2022/08/01 09:05:44;;;;;;;7.75;7.05;;;;;;;45.30;11.11;99674.66;5098025;28;20447;-69
2022/08/01 09:08:08;;;;;;;7.50;6.80;;;;;;;46.53;9.99;99677.06;5093026;28;20047;-69
2022/08/01 09:10:33;;;;;;;8.25;7.43;;;;;;;47.55;9.76;99665.72;5103271;27;20146;-68
2022/08/01 09:13:03;;;;;;;14.80;7.95;;;;;;;47.85;9.41;99673.94;5107194;28;20054;-67
2022/08/01 09:15:42;;;;;;;10.32;9.52;;;;;;;48.22;8.73;99678.31;5089927;27;20051;-68
2022/08/01 09:18:06;;;;;;;10.50;8.80;;;;;;;47.45;8.99;99673.84;5109184;27;20071;-68
2022/08/01 09:20:31;;;;;;;11.32;10.27;;;;;;;47.33;8.92;99664.19;5091745;27;20039;-68
2022/08/01 09:22:56;;;;;;;10.35;9.63;;;;;;;46.65;9.31;99670.69;5091320;27;20046;-69
2022/08/01 09:25:21;;;;;;;9.10;8.40;;;;;;;46.30;9.36;99661.72;5090895;27;20051;-69
2022/08/01 09:27:46;;;;;;;10.52;9.70;;;;;;;47.21;9.45;99654.88;5094370;27;20035;-68
2022/08/01 09:30:13;;;;;;;11.38;10.52;;;;;;;48.80;8.49;99670.28;5095136;27;20045;-71
2022/08/01 09:32:54;;;;;;;12.52;11.73;;;;;;;49.63;8.67;99669.16;5077015;27;20409;-69
2022/08/01 09:35:25;;;;;;;10.02;9.13;;;;;;;46.70;9.24;99662.00;5063870;27;20409;-69
2022/08/01 09:37:50;;;;;;;7.85;7.15;;;;;;;43.24;11.04;99642.69;5099657;27;20406;-67
2022/08/01 09:40:14;;;;;;;7.28;6.25;;;;;;;40.55;12.69;99640.53;5099496;27;20734;-67
2022/08/01 09:42:39;;;;;;;6.60;5.95;;;;;;;39.30;14.10;99641.28;5080803;27;20066;-68
2022/08/01 09:45:05;;;;;;;6.72;5.88;;;;;;;39.86;14.13;99639.44;5080563;27;20034;-67
2022/08/01 09:47:39;;;;;;;6.57;5.55;;;;;;;41.54;13.25;99644.81;5080423;27;20126;-67
2022/08/01 09:50:05;;;;;;;7.20;6.60;;;;;;;42.44;12.21;99643.78;5080600;27;20508;-67
2022/08/01 09:52:30;;;;;;;6.40;5.80;;;;;;;43.39;11.69;99644.22;5098994;27;20050;-68
2022/08/01 09:55:00;;;;;;;8.35;7.25;;;;;;;44.67;10.97;99650.22;5099043;27;20044;-69
2022/08/01 09:57:27;;;;;;;8.18;6.68;;;;;;;44.59;10.84;99643.44;5106169;27;20851;-69
2022/08/01 09:59:54;;;;;;;7.45;6.72;;;;;;;44.92;10.26;99643.72;5107273;27;20099;-69
2022/08/01 10:02:30;;;;;;;8.20;7.15;;;;;;;45.95;10.47;99642.28;5090225;27;20038;-69
2022/08/01 10:04:55;;;;;;;8.23;7.53;;;;;;;45.58;9.99;99643.22;5108775;27;20039;-68
2022/08/01 10:07:20;;;;;;;7.80;7.13;;;;;;;43.36;10.68;99634.47;5107586;27;20094;-68
2022/08/01 10:09:46;;;;;;;6.10;5.70;;;;;;;40.77;12.77;99636.25;5075571;27;20078;-69
2022/08/01 10:12:14;;;;;;;6.40;5.80;;;;;;;40.41;13.34;99625.69;5090710;27;20444;-68
2022/08/01 10:14:40;;;;;;;5.25;4.85;;;;;;;40.06;13.96;99631.88;5114052;27;20098;-69
2022/08/01 10:17:08;;;;;;;5.50;5.00;;;;;;;39.32;14.07;99625.09;5109415;27;20047;-69
2022/08/01 10:19:35;;;;;;;5.38;4.97;;;;;;;39.32;14.01;99625.91;5124712;27;20049;-68
2022/08/01 10:22:01;;;;;;;5.50;4.95;;;;;;;39.96;13.35;99620.88;5113449;27;20050;-67
2022/08/01 10:24:28;;;;;;;5.55;5.10;;;;;;;41.15;13.04;99626.56;5133115;27;20106;-69
2022/08/01 10:27:04;;;;;;;6.03;5.53;;;;;;;42.38;12.57;99626.25;5129396;27;20087;-68
2022/08/01 10:29:35;;;;;;;10.25;5.78;;;;;;;43.12;11.95;99633.25;5119113;27;20083;-69
2022/08/01 10:31:59;;;;;;;12.55;6.68;;;;;;;42.35;12.60;99634.44;5102222;27;20504;-68
2022/08/01 10:34:24;;;;;;;6.07;5.45;;;;;;;40.64;13.42;99629.47;5121135;27;20564;-68
2022/08/01 10:36:49;;;;;;;7.35;5.05;;;;;;;38.70;14.44;99626.94;5120145;27;20094;-67
2022/08/01 10:39:14;;;;;;;7.75;5.00;;;;;;;36.87;15.46;99622.47;5091273;27;20087;-68
2022/08/01 10:41:40;;;;;;;4.55;4.18;;;;;;;35.58;16.95;99627.41;5106421;27;20489;-69
2022/08/01 10:44:09;;;;;;;5.63;4.70;;;;;;;34.87;17.99;99624.34;5090606;27;20087;-68
2022/08/01 10:46:49;;;;;;;5.18;4.60;;;;;;;34.49;18.62;99619.09;5118498;27;20043;-69
2022/08/01 10:49:17;;;;;;;7.03;4.60;;;;;;;33.75;19.60;99614.28;5118476;27;20038;-70
2022/08/01 10:51:43;;;;;;;4.90;4.38;;;;;;;33.29;19.05;99612.94;5118508;27;20109;-68
2022/08/01 10:54:10;;;;;;;5.57;4.10;;;;;;;33.02;20.11;99606.50;5099647;27;20038;-67
2022/08/01 10:56:56;;;;;;;5.55;4.53;;;;;;;33.02;20.04;99600.97;5114244;27;20043;-67
2022/08/01 10:59:27;;;;;;;7.25;4.55;;;;;;;32.66;20.90;99597.69;5109824;27;20034;-68
2022/08/01 11:01:59;;;;;;;6.38;4.38;;;;;;;32.50;20.45;99593.06;5119208;27;20412;-67
2022/08/01 11:05:00;;;;;;;5.70;4.38;;;;;;;32.35;21.08;99596.41;5099601;27;20042;-67
2022/08/01 11:07:38;;;;;;;5.00;4.18;;;;;;;31.97;20.44;99596.28;5100177;27;20067;-69
2022/08/01 11:10:24;;;;;;;7.93;4.57;;;;;;;31.34;21.85;99597.34;5062256;27;20133;-66
2022/08/01 11:12:49;;;;;;;4.80;3.88;;;;;;;30.86;22.72;99592.16;5098058;27;20149;-66
2022/08/01 11:15:24;;;;;;;5.65;3.75;;;;;;;30.76;23.15;99587.28;5097481;27;20134;-67
2022/08/01 11:17:51;;;;;;;6.57;4.22;;;;;;;30.62;23.26;99583.94;5099218;27;20043;-66
2022/08/01 11:20:15;;;;;;;4.40;4.00;;;;;;;30.60;23.88;99579.75;5102019;27;20039;-67
2022/08/01 11:23:03;;;;;;;4.97;3.83;;;;;;;30.67;22.67;99578.56;5097613;27;20045;-67
2022/08/01 11:25:37;;;;;;;4.80;3.67;;;;;;;30.40;22.78;99574.59;5097166;27;20042;-67
2022/08/01 11:28:15;;;;;;;;;;;;;;;30.34;22.48;99570.09;5097816;27;20054;-66
2022/08/01 11:30:41;;;;;;;4.65;3.83;;;;;;;29.50;24.24;99577.56;5097257;27;20286;-66
2022/08/01 11:33:06;;;;;;;6.90;4.43;;;;;;;29.10;24.28;99571.75;5095612;27;20042;-66